sensor_id;sensor_type;location;lat;lon;timestamp;noise_LAeq;noise_LA_min;noise_LA_max;noise_LA01;noise_LA95
79200;Laerm;68628;48.714;9.472;2023-07-29T00:01:34;51.29;50.67;52.96;;
79200;Laerm;68628;48.714;9.472;2023-07-29T00:04:01;51.61;50.74;53.02;;
79200;Laerm;68628;48.714;9.472;2023-07-29T00:06:28;51.60;50.73;52.83;;
79200;Laerm;68628;48.714;9.472;2023-07-29T00:08:54;51.33;50.70;52.12;;
79200;Laerm;68628;48.714;9.472;2023-07-29T00:11:20;51.23;50.55;54.92;;
79200;Laerm;68628;48.714;9.472;2023-07-29T00:13:46;51.24;50.72;53.41;;
79200;Laerm;68628;48.714;9.472;2023-07-29T00:16:12;51.24;50.58;51.85;;
79200;Laerm;68628;48.714;9.472;2023-07-29T00:18:40;51.32;50.74;51.84;;
79200;Laerm;68628;48.714;9.472;2023-07-29T00:21:07;51.92;50.69;54.71;;
79200;Laerm;68628;48.714;9.472;2023-07-29T00:23:33;51.67;50.92;53.24;;
79200;Laerm;68628;48.714;9.472;2023-07-29T00:25:59;51.56;50.80;54.92;;
79200;Laerm;68628;48.714;9.472;2023-07-29T00:28:25;51.34;50.79;53.29;;
79200;Laerm;68628;48.714;9.472;2023-07-29T00:30:51;55.29;50.78;59.87;;
79200;Laerm;68628;48.714;9.472;2023-07-29T00:33:17;56.75;51.86;59.53;;
79200;Laerm;68628;48.714;9.472;2023-07-29T00:35:45;55.65;51.44;59.74;;
79200;Laerm;68628;48.714;9.472;2023-07-29T00:38:11;54.79;51.13;58.15;;
79200;Laerm;68628;48.714;9.472;2023-07-29T00:40:37;53.36;50.83;57.73;;
79200;Laerm;68628;48.714;9.472;2023-07-29T00:43:04;53.05;51.75;53.90;;
79200;Laerm;68628;48.714;9.472;2023-07-29T00:45:32;52.38;50.70;56.22;;
79200;Laerm;68628;48.714;9.472;2023-07-29T00:48:01;52.01;50.72;58.32;;
79200;Laerm;68628;48.714;9.472;2023-07-29T00:50:30;51.27;50.76;52.29;;
79200;Laerm;68628;48.714;9.472;2023-07-29T00:52:57;51.37;50.75;52.36;;
79200;Laerm;68628;48.714;9.472;2023-07-29T00:55:24;51.36;50.78;52.24;;
79200;Laerm;68628;48.714;9.472;2023-07-29T00:57:51;51.32;50.77;52.05;;
79200;Laerm;68628;48.714;9.472;2023-07-29T01:00:20;51.26;50.73;51.90;;
79200;Laerm;68628;48.714;9.472;2023-07-29T01:02:47;51.96;50.49;64.83;;
79200;Laerm;68628;48.714;9.472;2023-07-29T01:05:17;51.48;50.57;54.27;;
79200;Laerm;68628;48.714;9.472;2023-07-29T01:08:51;51.36;50.64;52.43;;
79200;Laerm;68628;48.714;9.472;2023-07-29T01:11:12;51.48;50.64;59.86;;
79200;Laerm;68628;48.714;9.472;2023-07-29T01:16:22;51.31;50.71;51.93;;
79200;Laerm;68628;48.714;9.472;2023-07-29T01:18:55;51.49;50.74;52.36;;
79200;Laerm;68628;48.714;9.472;2023-07-29T01:21:21;51.51;50.88;52.00;;
79200;Laerm;68628;48.714;9.472;2023-07-29T01:23:52;51.54;50.77;52.05;;
79200;Laerm;68628;48.714;9.472;2023-07-29T01:26:18;51.52;50.75;52.91;;
79200;Laerm;68628;48.714;9.472;2023-07-29T01:28:45;51.30;50.66;58.18;;
79200;Laerm;68628;48.714;9.472;2023-07-29T01:31:39;51.29;50.48;54.13;;
79200;Laerm;68628;48.714;9.472;2023-07-29T01:34:29;51.90;50.87;52.88;;
79200;Laerm;68628;48.714;9.472;2023-07-29T01:37:02;51.33;50.69;52.99;;
79200;Laerm;68628;48.714;9.472;2023-07-29T01:39:34;51.25;50.61;51.73;;
79200;Laerm;68628;48.714;9.472;2023-07-29T01:42:03;51.21;50.68;51.81;;
79200;Laerm;68628;48.714;9.472;2023-07-29T01:44:29;51.20;50.52;51.71;;
79200;Laerm;68628;48.714;9.472;2023-07-29T01:46:56;51.22;50.68;51.90;;
79200;Laerm;68628;48.714;9.472;2023-07-29T01:49:22;51.21;50.60;51.74;;
79200;Laerm;68628;48.714;9.472;2023-07-29T01:51:48;51.20;50.48;51.74;;
79200;Laerm;68628;48.714;9.472;2023-07-29T01:54:14;51.20;50.61;51.71;;
79200;Laerm;68628;48.714;9.472;2023-07-29T01:56:41;51.22;50.62;53.20;;
79200;Laerm;68628;48.714;9.472;2023-07-29T01:59:07;51.33;50.71;52.04;;
79200;Laerm;68628;48.714;9.472;2023-07-29T02:01:33;51.25;50.62;51.86;;
79200;Laerm;68628;48.714;9.472;2023-07-29T02:03:59;51.23;50.55;51.92;;
79200;Laerm;68628;48.714;9.472;2023-07-29T02:06:25;51.26;50.63;52.21;;
79200;Laerm;68628;48.714;9.472;2023-07-29T02:08:55;51.26;50.58;53.76;;
79200;Laerm;68628;48.714;9.472;2023-07-29T02:15:01;51.65;50.63;55.56;;
79200;Laerm;68628;48.714;9.472;2023-07-29T02:17:27;51.26;50.63;53.59;;
79200;Laerm;68628;48.714;9.472;2023-07-29T02:19:53;51.33;50.63;60.43;;
79200;Laerm;68628;48.714;9.472;2023-07-29T02:22:20;51.25;50.59;55.09;;
79200;Laerm;68628;48.714;9.472;2023-07-29T02:24:46;51.31;50.53;57.24;;
79200;Laerm;68628;48.714;9.472;2023-07-29T02:27:12;51.31;50.51;53.04;;
79200;Laerm;68628;48.714;9.472;2023-07-29T02:29:38;51.30;50.49;53.23;;
79200;Laerm;68628;48.714;9.472;2023-07-29T02:32:04;51.29;50.56;53.03;;
79200;Laerm;68628;48.714;9.472;2023-07-29T02:34:31;51.33;50.69;51.97;;
79200;Laerm;68628;48.714;9.472;2023-07-29T02:36:57;51.27;50.74;51.93;;
79200;Laerm;68628;48.714;9.472;2023-07-29T02:39:23;51.27;50.57;52.22;;
79200;Laerm;68628;48.714;9.472;2023-07-29T02:41:49;51.30;50.62;51.98;;
79200;Laerm;68628;48.714;9.472;2023-07-29T02:44:16;51.37;50.80;53.47;;
79200;Laerm;68628;48.714;9.472;2023-07-29T02:46:42;51.34;50.74;54.79;;
79200;Laerm;68628;48.714;9.472;2023-07-29T02:49:08;51.92;50.70;61.31;;
79200;Laerm;68628;48.714;9.472;2023-07-29T02:51:34;51.40;50.77;53.93;;
79200;Laerm;68628;48.714;9.472;2023-07-29T02:54:00;51.89;50.72;59.50;;
79200;Laerm;68628;48.714;9.472;2023-07-29T02:56:26;54.69;50.80;62.10;;
79200;Laerm;68628;48.714;9.472;2023-07-29T02:58:52;54.10;50.75;62.97;;
79200;Laerm;68628;48.714;9.472;2023-07-29T03:01:20;51.88;50.73;58.16;;
79200;Laerm;68628;48.714;9.472;2023-07-29T03:03:46;51.32;50.70;55.82;;
79200;Laerm;68628;48.714;9.472;2023-07-29T03:06:13;51.26;50.66;53.15;;
79200;Laerm;68628;48.714;9.472;2023-07-29T03:08:40;51.24;50.64;53.99;;
79200;Laerm;68628;48.714;9.472;2023-07-29T03:11:11;51.28;50.66;51.98;;
79200;Laerm;68628;48.714;9.472;2023-07-29T03:13:38;51.31;50.68;53.99;;
79200;Laerm;68628;48.714;9.472;2023-07-29T03:16:07;51.40;50.71;53.14;;
79200;Laerm;68628;48.714;9.472;2023-07-29T03:18:34;51.39;50.84;53.49;;
79200;Laerm;68628;48.714;9.472;2023-07-29T03:21:00;51.37;50.78;52.06;;
79200;Laerm;68628;48.714;9.472;2023-07-29T03:23:28;51.29;50.66;53.95;;
79200;Laerm;68628;48.714;9.472;2023-07-29T03:26:00;51.37;50.61;55.00;;
79200;Laerm;68628;48.714;9.472;2023-07-29T03:28:30;51.27;50.62;53.76;;
79200;Laerm;68628;48.714;9.472;2023-07-29T03:30:56;51.31;50.69;51.89;;
79200;Laerm;68628;48.714;9.472;2023-07-29T03:33:25;51.31;50.69;52.55;;
79200;Laerm;68628;48.714;9.472;2023-07-29T03:35:52;51.32;50.64;53.03;;
79200;Laerm;68628;48.714;9.472;2023-07-29T03:38:18;51.27;50.70;52.03;;
79200;Laerm;68628;48.714;9.472;2023-07-29T03:40:45;51.28;50.69;51.97;;
79200;Laerm;68628;48.714;9.472;2023-07-29T03:43:11;51.28;50.71;51.80;;
79200;Laerm;68628;48.714;9.472;2023-07-29T03:45:39;51.24;50.67;51.99;;
79200;Laerm;68628;48.714;9.472;2023-07-29T03:48:07;51.26;50.66;51.84;;
79200;Laerm;68628;48.714;9.472;2023-07-29T03:50:36;51.25;50.54;51.91;;
79200;Laerm;68628;48.714;9.472;2023-07-29T03:53:03;51.35;50.72;53.48;;
79200;Laerm;68628;48.714;9.472;2023-07-29T03:55:31;51.57;50.84;52.98;;
79200;Laerm;68628;48.714;9.472;2023-07-29T03:57:58;51.33;50.61;52.03;;
79200;Laerm;68628;48.714;9.472;2023-07-29T04:00:26;51.32;50.61;51.93;;
79200;Laerm;68628;48.714;9.472;2023-07-29T04:02:53;51.47;50.72;60.16;;
79200;Laerm;68628;48.714;9.472;2023-07-29T04:05:19;51.39;50.76;53.74;;
79200;Laerm;68628;48.714;9.472;2023-07-29T04:07:46;51.49;50.75;54.15;;
79200;Laerm;68628;48.714;9.472;2023-07-29T04:10:13;51.47;50.90;53.29;;
79200;Laerm;68628;48.714;9.472;2023-07-29T04:12:39;51.41;50.79;53.87;;
79200;Laerm;68628;48.714;9.472;2023-07-29T04:15:06;51.36;50.69;52.65;;
79200;Laerm;68628;48.714;9.472;2023-07-29T04:17:32;51.33;50.80;51.98;;
79200;Laerm;68628;48.714;9.472;2023-07-29T04:19:58;51.52;50.77;54.27;;
79200;Laerm;68628;48.714;9.472;2023-07-29T04:22:24;51.45;50.69;54.42;;
79200;Laerm;68628;48.714;9.472;2023-07-29T04:24:50;51.66;50.71;54.98;;
79200;Laerm;68628;48.714;9.472;2023-07-29T04:27:17;53.77;50.80;61.13;;
79200;Laerm;68628;48.714;9.472;2023-07-29T04:29:43;51.51;50.67;56.27;;
79200;Laerm;68628;48.714;9.472;2023-07-29T04:32:09;51.44;50.67;56.77;;
79200;Laerm;68628;48.714;9.472;2023-07-29T04:34:35;51.27;50.70;52.12;;
79200;Laerm;68628;48.714;9.472;2023-07-29T04:37:01;51.25;50.61;52.27;;
79200;Laerm;68628;48.714;9.472;2023-07-29T04:39:27;51.27;50.73;53.82;;
79200;Laerm;68628;48.714;9.472;2023-07-29T04:41:53;51.24;50.65;51.90;;
79200;Laerm;68628;48.714;9.472;2023-07-29T04:44:19;51.51;50.70;61.24;;
79200;Laerm;68628;48.714;9.472;2023-07-29T04:46:45;61.03;50.93;65.41;;
79200;Laerm;68628;48.714;9.472;2023-07-29T04:49:12;59.77;57.79;62.35;;
79200;Laerm;68628;48.714;9.472;2023-07-29T04:51:38;58.35;55.91;60.55;;
79200;Laerm;68628;48.714;9.472;2023-07-29T04:54:04;58.16;50.80;61.66;;
79200;Laerm;68628;48.714;9.472;2023-07-29T04:56:30;51.56;50.89;52.38;;
79200;Laerm;68628;48.714;9.472;2023-07-29T04:58:56;51.39;50.70;52.37;;
79200;Laerm;68628;48.714;9.472;2023-07-29T05:01:22;51.22;50.69;51.80;;
79200;Laerm;68628;48.714;9.472;2023-07-29T05:03:48;51.27;50.62;52.01;;
79200;Laerm;68628;48.714;9.472;2023-07-29T05:06:14;51.26;50.65;51.83;;
79200;Laerm;68628;48.714;9.472;2023-07-29T05:08:41;51.24;50.61;51.78;;
79200;Laerm;68628;48.714;9.472;2023-07-29T05:11:07;51.22;50.52;51.73;;
79200;Laerm;68628;48.714;9.472;2023-07-29T05:13:33;51.20;50.66;51.68;;
79200;Laerm;68628;48.714;9.472;2023-07-29T05:15:59;51.21;50.65;51.81;;
79200;Laerm;68628;48.714;9.472;2023-07-29T05:18:25;51.22;50.71;58.01;;
79200;Laerm;68628;48.714;9.472;2023-07-29T05:20:51;51.20;50.60;51.99;;
79200;Laerm;68628;48.714;9.472;2023-07-29T05:23:17;51.22;50.61;51.73;;
79200;Laerm;68628;48.714;9.472;2023-07-29T05:25:43;51.24;50.61;51.70;;
79200;Laerm;68628;48.714;9.472;2023-07-29T05:28:10;51.24;50.61;51.96;;
79200;Laerm;68628;48.714;9.472;2023-07-29T05:30:36;51.26;50.65;52.09;;
79200;Laerm;68628;48.714;9.472;2023-07-29T05:33:03;51.59;50.80;52.45;;
79200;Laerm;68628;48.714;9.472;2023-07-29T05:35:30;51.44;50.78;52.26;;
79200;Laerm;68628;48.714;9.472;2023-07-29T05:37:56;51.27;50.62;51.84;;
79200;Laerm;68628;48.714;9.472;2023-07-29T05:40:22;51.21;50.56;52.63;;
79200;Laerm;68628;48.714;9.472;2023-07-29T05:42:49;51.20;50.67;51.70;;
79200;Laerm;68628;48.714;9.472;2023-07-29T05:45:15;51.20;50.41;51.81;;
79200;Laerm;68628;48.714;9.472;2023-07-29T05:47:41;51.19;50.56;51.78;;
79200;Laerm;68628;48.714;9.472;2023-07-29T05:50:08;51.20;50.62;51.74;;
79200;Laerm;68628;48.714;9.472;2023-07-29T05:52:34;51.20;50.58;51.73;;
79200;Laerm;68628;48.714;9.472;2023-07-29T05:55:00;51.20;50.59;51.75;;
79200;Laerm;68628;48.714;9.472;2023-07-29T05:57:27;51.19;50.62;51.62;;
79200;Laerm;68628;48.714;9.472;2023-07-29T05:59:53;51.19;50.63;51.72;;
79200;Laerm;68628;48.714;9.472;2023-07-29T06:02:19;51.21;50.62;51.76;;
79200;Laerm;68628;48.714;9.472;2023-07-29T06:04:45;51.18;50.55;51.90;;
79200;Laerm;68628;48.714;9.472;2023-07-29T06:07:12;51.18;50.62;51.68;;
79200;Laerm;68628;48.714;9.472;2023-07-29T06:09:39;51.20;50.41;52.24;;
79200;Laerm;68628;48.714;9.472;2023-07-29T06:12:06;51.15;50.63;51.68;;
79200;Laerm;68628;48.714;9.472;2023-07-29T06:14:32;51.18;50.62;51.74;;
79200;Laerm;68628;48.714;9.472;2023-07-29T06:16:58;51.17;50.54;51.74;;
79200;Laerm;68628;48.714;9.472;2023-07-29T06:19:24;51.14;50.50;51.67;;
79200;Laerm;68628;48.714;9.472;2023-07-29T06:21:50;51.46;50.52;53.76;;
79200;Laerm;68628;48.714;9.472;2023-07-29T06:24:17;51.50;50.65;54.70;;
79200;Laerm;68628;48.714;9.472;2023-07-29T06:26:43;51.21;50.69;52.22;;
79200;Laerm;68628;48.714;9.472;2023-07-29T06:29:09;51.32;50.62;52.42;;
79200;Laerm;68628;48.714;9.472;2023-07-29T06:31:35;51.31;50.57;53.23;;
79200;Laerm;68628;48.714;9.472;2023-07-29T06:34:01;51.16;50.48;52.63;;
79200;Laerm;68628;48.714;9.472;2023-07-29T06:36:27;51.74;50.59;52.90;;
79200;Laerm;68628;48.714;9.472;2023-07-29T06:38:54;51.21;50.64;52.38;;
79200;Laerm;68628;48.714;9.472;2023-07-29T06:41:20;51.10;50.34;52.91;;
79200;Laerm;68628;48.714;9.472;2023-07-29T06:43:46;51.10;50.51;52.04;;
79200;Laerm;68628;48.714;9.472;2023-07-29T06:46:12;51.07;50.39;52.80;;
79200;Laerm;68628;48.714;9.472;2023-07-29T06:48:38;51.40;50.50;52.22;;
79200;Laerm;68628;48.714;9.472;2023-07-29T06:51:05;51.47;50.83;53.11;;
79200;Laerm;68628;48.714;9.472;2023-07-29T06:53:31;51.55;50.84;53.96;;
79200;Laerm;68628;48.714;9.472;2023-07-29T06:55:57;51.19;50.57;52.06;;
79200;Laerm;68628;48.714;9.472;2023-07-29T06:58:23;51.04;50.45;51.72;;
79200;Laerm;68628;48.714;9.472;2023-07-29T07:00:49;51.18;50.53;52.76;;
79200;Laerm;68628;48.714;9.472;2023-07-29T07:03:15;51.45;50.67;52.48;;
79200;Laerm;68628;48.714;9.472;2023-07-29T07:05:41;51.20;50.52;51.80;;
79200;Laerm;68628;48.714;9.472;2023-07-29T07:08:08;51.19;50.64;51.67;;
79200;Laerm;68628;48.714;9.472;2023-07-29T07:10:34;51.10;50.56;51.64;;
79200;Laerm;68628;48.714;9.472;2023-07-29T07:13:00;51.12;50.56;51.68;;
79200;Laerm;68628;48.714;9.472;2023-07-29T07:15:26;51.12;50.60;51.70;;
79200;Laerm;68628;48.714;9.472;2023-07-29T07:17:52;51.12;50.58;51.64;;
79200;Laerm;68628;48.714;9.472;2023-07-29T07:20:18;51.13;50.60;51.63;;
79200;Laerm;68628;48.714;9.472;2023-07-29T07:22:45;51.16;50.61;51.74;;
79200;Laerm;68628;48.714;9.472;2023-07-29T07:25:11;51.17;50.60;51.67;;
79200;Laerm;68628;48.714;9.472;2023-07-29T07:27:37;51.21;50.56;51.73;;
79200;Laerm;68628;48.714;9.472;2023-07-29T07:30:03;51.23;50.69;51.74;;
79200;Laerm;68628;48.714;9.472;2023-07-29T07:32:30;51.22;50.61;51.82;;
79200;Laerm;68628;48.714;9.472;2023-07-29T07:34:56;51.21;50.61;51.74;;
79200;Laerm;68628;48.714;9.472;2023-07-29T07:37:22;51.20;50.66;51.76;;
79200;Laerm;68628;48.714;9.472;2023-07-29T07:39:48;51.20;50.60;51.69;;
79200;Laerm;68628;48.714;9.472;2023-07-29T07:42:14;51.23;50.72;51.82;;
79200;Laerm;68628;48.714;9.472;2023-07-29T07:44:41;51.27;50.57;51.82;;
79200;Laerm;68628;48.714;9.472;2023-07-29T07:47:07;51.20;50.58;51.71;;
79200;Laerm;68628;48.714;9.472;2023-07-29T07:49:33;51.17;50.51;52.01;;
79200;Laerm;68628;48.714;9.472;2023-07-29T07:51:59;51.19;50.67;51.74;;
79200;Laerm;68628;48.714;9.472;2023-07-29T07:54:25;51.12;50.56;51.69;;
79200;Laerm;68628;48.714;9.472;2023-07-29T07:56:51;51.10;50.60;51.83;;
79200;Laerm;68628;48.714;9.472;2023-07-29T07:59:18;51.07;50.51;51.61;;
79200;Laerm;68628;48.714;9.472;2023-07-29T08:01:44;51.08;50.54;51.65;;
79200;Laerm;68628;48.714;9.472;2023-07-29T08:04:10;51.13;50.44;51.61;;
79200;Laerm;68628;48.714;9.472;2023-07-29T08:06:36;51.14;50.57;51.74;;
79200;Laerm;68628;48.714;9.472;2023-07-29T08:09:03;51.06;50.55;51.62;;
79200;Laerm;68628;48.714;9.472;2023-07-29T08:11:29;51.03;50.53;51.57;;
79200;Laerm;68628;48.714;9.472;2023-07-29T08:13:55;51.03;50.45;51.53;;
79200;Laerm;68628;48.714;9.472;2023-07-29T08:16:21;51.03;50.46;51.57;;
79200;Laerm;68628;48.714;9.472;2023-07-29T08:18:47;51.03;50.50;51.65;;
79200;Laerm;68628;48.714;9.472;2023-07-29T08:21:14;51.03;50.44;51.60;;
79200;Laerm;68628;48.714;9.472;2023-07-29T08:23:40;51.01;50.41;51.55;;
79200;Laerm;68628;48.714;9.472;2023-07-29T08:26:06;51.10;50.57;52.32;;
79200;Laerm;68628;48.714;9.472;2023-07-29T08:28:36;51.04;50.48;51.61;;
79200;Laerm;68628;48.714;9.472;2023-07-29T08:31:04;51.06;50.44;51.72;;
79200;Laerm;68628;48.714;9.472;2023-07-29T08:33:31;50.99;50.48;51.72;;
79200;Laerm;68628;48.714;9.472;2023-07-29T08:35:59;50.95;50.36;51.47;;
79200;Laerm;68628;48.714;9.472;2023-07-29T08:38:25;51.00;50.37;52.71;;
79200;Laerm;68628;48.714;9.472;2023-07-29T08:41:16;50.85;50.17;52.10;;
79200;Laerm;68628;48.714;9.472;2023-07-29T08:44:14;50.86;50.29;52.50;;
79200;Laerm;68628;48.714;9.472;2023-07-29T08:46:43;50.95;50.35;52.17;;
79200;Laerm;68628;48.714;9.472;2023-07-29T08:49:12;50.94;50.42;51.86;;
79200;Laerm;68628;48.714;9.472;2023-07-29T08:51:47;50.93;50.43;51.81;;
79200;Laerm;68628;48.714;9.472;2023-07-29T08:54:14;50.96;50.39;51.94;;
79200;Laerm;68628;48.714;9.472;2023-07-29T08:56:42;50.94;50.40;51.85;;
79200;Laerm;68628;48.714;9.472;2023-07-29T08:59:10;50.97;50.33;51.82;;
79200;Laerm;68628;48.714;9.472;2023-07-29T09:01:40;50.85;50.30;51.64;;
79200;Laerm;68628;48.714;9.472;2023-07-29T09:04:07;50.77;50.18;51.97;;
79200;Laerm;68628;48.714;9.472;2023-07-29T09:06:35;50.74;50.20;51.64;;
79200;Laerm;68628;48.714;9.472;2023-07-29T09:09:03;50.64;50.06;51.72;;
79200;Laerm;68628;48.714;9.472;2023-07-29T09:11:31;50.44;49.89;52.10;;
79200;Laerm;68628;48.714;9.472;2023-07-29T09:13:58;51.22;49.64;58.07;;
79200;Laerm;68628;48.714;9.472;2023-07-29T09:16:25;55.28;49.96;70.53;;
79200;Laerm;68628;48.714;9.472;2023-07-29T09:18:52;56.85;49.28;67.76;;
79200;Laerm;68628;48.714;9.472;2023-07-29T09:21:24;55.09;49.38;67.57;;
79200;Laerm;68628;48.714;9.472;2023-07-29T09:23:52;62.18;52.31;72.56;;
79200;Laerm;68628;48.714;9.472;2023-07-29T09:26:24;63.50;57.38;67.23;;
79200;Laerm;68628;48.714;9.472;2023-07-29T09:28:58;65.84;57.61;68.06;;
79200;Laerm;68628;48.714;9.472;2023-07-29T09:31:27;65.77;54.80;71.35;;
79200;Laerm;68628;48.714;9.472;2023-07-29T09:34:02;64.35;59.78;67.39;;
79200;Laerm;68628;48.714;9.472;2023-07-29T09:36:33;62.92;53.07;71.03;;
79200;Laerm;68628;48.714;9.472;2023-07-29T09:39:02;61.41;52.55;68.54;;
79200;Laerm;68628;48.714;9.472;2023-07-29T09:41:29;57.80;51.45;63.36;;
79200;Laerm;68628;48.714;9.472;2023-07-29T09:44:02;57.42;52.06;64.48;;
79200;Laerm;68628;48.714;9.472;2023-07-29T09:46:37;58.02;54.12;63.81;;
79200;Laerm;68628;48.714;9.472;2023-07-29T09:49:07;58.30;53.44;63.51;;
79200;Laerm;68628;48.714;9.472;2023-07-29T09:51:40;57.11;51.29;62.90;;
79200;Laerm;68628;48.714;9.472;2023-07-29T09:54:06;59.35;53.26;63.69;;
79200;Laerm;68628;48.714;9.472;2023-07-29T09:56:33;60.28;51.82;63.83;;
79200;Laerm;68628;48.714;9.472;2023-07-29T09:58:59;57.46;52.15;63.24;;
79200;Laerm;68628;48.714;9.472;2023-07-29T10:01:26;59.14;50.19;64.41;;
79200;Laerm;68628;48.714;9.472;2023-07-29T10:03:52;60.57;49.57;69.59;;
79200;Laerm;68628;48.714;9.472;2023-07-29T10:06:22;64.37;49.75;75.95;;
79200;Laerm;68628;48.714;9.472;2023-07-29T10:08:50;60.70;49.40;67.53;;
79200;Laerm;68628;48.714;9.472;2023-07-29T10:11:16;62.30;49.72;76.73;;
79200;Laerm;68628;48.714;9.472;2023-07-29T10:13:46;65.19;49.69;71.54;;
79200;Laerm;68628;48.714;9.472;2023-07-29T10:16:12;62.83;49.66;74.83;;
79200;Laerm;68628;48.714;9.472;2023-07-29T10:18:40;62.74;49.91;76.16;;
79200;Laerm;68628;48.714;9.472;2023-07-29T10:21:11;66.71;58.06;73.59;;
79200;Laerm;68628;48.714;9.472;2023-07-29T10:23:46;64.19;56.94;71.65;;
79200;Laerm;68628;48.714;9.472;2023-07-29T10:26:20;61.43;51.68;69.13;;
79200;Laerm;68628;48.714;9.472;2023-07-29T10:28:51;63.09;49.57;78.95;;
79200;Laerm;68628;48.714;9.472;2023-07-29T10:31:20;64.89;57.01;70.55;;
79200;Laerm;68628;48.714;9.472;2023-07-29T10:33:48;63.18;57.66;68.55;;
79200;Laerm;68628;48.714;9.472;2023-07-29T10:36:15;64.01;59.49;68.66;;
79200;Laerm;68628;48.714;9.472;2023-07-29T10:38:42;63.40;58.23;71.01;;
79200;Laerm;68628;48.714;9.472;2023-07-29T10:41:08;64.59;55.84;72.79;;
79200;Laerm;68628;48.714;9.472;2023-07-29T10:43:37;62.93;56.02;66.47;;
79200;Laerm;68628;48.714;9.472;2023-07-29T10:46:22;64.01;55.97;70.80;;
79200;Laerm;68628;48.714;9.472;2023-07-29T10:51:37;68.31;53.58;73.28;;
79200;Laerm;68628;48.714;9.472;2023-07-29T10:54:14;64.89;54.38;71.90;;
79200;Laerm;68628;48.714;9.472;2023-07-29T10:56:48;59.37;53.89;64.23;;
79200;Laerm;68628;48.714;9.472;2023-07-29T11:02:00;59.24;55.73;65.31;;
79200;Laerm;68628;48.714;9.472;2023-07-29T11:04:29;58.58;51.52;64.56;;
79200;Laerm;68628;48.714;9.472;2023-07-29T11:12:43;59.80;55.88;62.11;;
79200;Laerm;68628;48.714;9.472;2023-07-29T11:17:50;59.84;53.19;62.81;;
79200;Laerm;68628;48.714;9.472;2023-07-29T11:20:19;58.24;49.88;62.08;;
79200;Laerm;68628;48.714;9.472;2023-07-29T11:22:47;58.04;51.12;61.15;;
79200;Laerm;68628;48.714;9.472;2023-07-29T11:25:16;58.41;51.80;61.10;;
79200;Laerm;68628;48.714;9.472;2023-07-29T11:27:43;59.58;56.43;61.61;;
79200;Laerm;68628;48.714;9.472;2023-07-29T11:30:13;60.68;58.58;62.41;;
79200;Laerm;68628;48.714;9.472;2023-07-29T11:32:42;61.29;59.07;63.21;;
79200;Laerm;68628;48.714;9.472;2023-07-29T11:35:12;60.17;50.23;63.47;;
79200;Laerm;68628;48.714;9.472;2023-07-29T11:37:41;57.18;54.23;58.73;;
79200;Laerm;68628;48.714;9.472;2023-07-29T11:40:08;57.77;54.51;58.91;;
79200;Laerm;68628;48.714;9.472;2023-07-29T11:42:38;57.23;54.35;58.26;;
79200;Laerm;68628;48.714;9.472;2023-07-29T11:45:06;56.75;55.00;57.97;;
79200;Laerm;68628;48.714;9.472;2023-07-29T11:47:33;56.24;54.30;58.69;;
79200;Laerm;68628;48.714;9.472;2023-07-29T11:50:08;56.16;49.85;59.90;;
79200;Laerm;68628;48.714;9.472;2023-07-29T11:52:45;51.33;49.81;61.52;;
79200;Laerm;68628;48.714;9.472;2023-07-29T11:55:15;50.90;50.05;55.69;;
79200;Laerm;68628;48.714;9.472;2023-07-29T11:57:43;51.33;50.07;57.54;;
79200;Laerm;68628;48.714;9.472;2023-07-29T12:00:11;51.70;50.44;56.82;;
79200;Laerm;68628;48.714;9.472;2023-07-29T12:02:40;51.62;50.47;56.10;;
79200;Laerm;68628;48.714;9.472;2023-07-29T12:05:12;55.20;50.32;63.20;;
79200;Laerm;68628;48.714;9.472;2023-07-29T12:07:39;51.97;50.37;66.71;;
79200;Laerm;68628;48.714;9.472;2023-07-29T12:10:07;51.97;50.20;64.14;;
79200;Laerm;68628;48.714;9.472;2023-07-29T12:12:38;51.44;50.48;54.56;;
79200;Laerm;68628;48.714;9.472;2023-07-29T12:15:07;51.62;50.03;56.77;;
79200;Laerm;68628;48.714;9.472;2023-07-29T12:17:40;60.30;49.64;67.29;;
79200;Laerm;68628;48.714;9.472;2023-07-29T12:20:09;58.52;51.31;63.19;;
79200;Laerm;68628;48.714;9.472;2023-07-29T12:22:36;60.68;51.76;66.85;;
79200;Laerm;68628;48.714;9.472;2023-07-29T12:25:03;56.68;51.21;65.27;;
79200;Laerm;68628;48.714;9.472;2023-07-29T12:27:30;60.79;51.59;67.31;;
79200;Laerm;68628;48.714;9.472;2023-07-29T12:29:57;59.53;51.67;67.79;;
79200;Laerm;68628;48.714;9.472;2023-07-29T12:32:26;56.77;53.00;61.01;;
79200;Laerm;68628;48.714;9.472;2023-07-29T12:34:53;58.38;55.72;61.88;;
79200;Laerm;68628;48.714;9.472;2023-07-29T12:37:20;57.37;52.91;62.01;;
79200;Laerm;68628;48.714;9.472;2023-07-29T12:39:50;56.41;52.43;61.57;;
79200;Laerm;68628;48.714;9.472;2023-07-29T12:42:16;59.10;54.75;64.61;;
79200;Laerm;68628;48.714;9.472;2023-07-29T12:44:42;59.90;56.84;63.10;;
79200;Laerm;68628;48.714;9.472;2023-07-29T12:47:08;60.69;57.44;64.56;;
79200;Laerm;68628;48.714;9.472;2023-07-29T12:49:36;61.30;53.55;64.72;;
79200;Laerm;68628;48.714;9.472;2023-07-29T12:52:03;60.21;53.49;64.78;;
79200;Laerm;68628;48.714;9.472;2023-07-29T12:54:29;57.39;52.68;62.04;;
79200;Laerm;68628;48.714;9.472;2023-07-29T12:56:55;57.12;51.77;62.83;;
79200;Laerm;68628;48.714;9.472;2023-07-29T12:59:21;58.48;53.02;64.14;;
79200;Laerm;68628;48.714;9.472;2023-07-29T13:01:48;55.16;52.03;61.21;;
79200;Laerm;68628;48.714;9.472;2023-07-29T13:04:14;57.01;52.10;61.84;;
79200;Laerm;68628;48.714;9.472;2023-07-29T13:06:40;57.32;53.21;63.91;;
79200;Laerm;68628;48.714;9.472;2023-07-29T13:09:06;56.72;53.15;61.56;;
79200;Laerm;68628;48.714;9.472;2023-07-29T13:11:35;58.05;53.55;62.89;;
79200;Laerm;68628;48.714;9.472;2023-07-29T13:14:03;56.41;53.70;62.35;;
79200;Laerm;68628;48.714;9.472;2023-07-29T13:16:29;57.72;53.73;63.78;;
79200;Laerm;68628;48.714;9.472;2023-07-29T13:18:55;58.05;53.79;63.74;;
79200;Laerm;68628;48.714;9.472;2023-07-29T13:21:22;57.48;52.99;63.13;;
79200;Laerm;68628;48.714;9.472;2023-07-29T13:23:49;55.48;52.40;62.55;;
79200;Laerm;68628;48.714;9.472;2023-07-29T13:26:15;55.46;52.74;57.64;;
79200;Laerm;68628;48.714;9.472;2023-07-29T13:28:41;61.30;53.68;64.09;;
79200;Laerm;68628;48.714;9.472;2023-07-29T13:31:07;57.62;53.04;64.65;;
79200;Laerm;68628;48.714;9.472;2023-07-29T13:33:33;58.29;53.75;63.54;;
79200;Laerm;68628;48.714;9.472;2023-07-29T13:36:01;56.71;53.41;62.74;;
79200;Laerm;68628;48.714;9.472;2023-07-29T13:38:29;59.34;53.54;64.77;;
79200;Laerm;68628;48.714;9.472;2023-07-29T13:40:56;59.28;54.48;63.16;;
79200;Laerm;68628;48.714;9.472;2023-07-29T13:43:22;59.62;54.92;63.63;;
79200;Laerm;68628;48.714;9.472;2023-07-29T13:45:48;59.10;55.53;65.43;;
79200;Laerm;68628;48.714;9.472;2023-07-29T13:48:15;58.16;55.56;64.84;;
79200;Laerm;68628;48.714;9.472;2023-07-29T13:50:41;58.09;55.80;62.35;;
79200;Laerm;68628;48.714;9.472;2023-07-29T13:53:09;57.97;55.60;61.85;;
79200;Laerm;68628;48.714;9.472;2023-07-29T13:55:36;57.96;55.18;63.15;;
79200;Laerm;68628;48.714;9.472;2023-07-29T13:58:02;57.80;55.60;62.94;;
79200;Laerm;68628;48.714;9.472;2023-07-29T14:00:28;57.76;55.41;61.92;;
79200;Laerm;68628;48.714;9.472;2023-07-29T14:02:54;57.79;55.48;61.91;;
79200;Laerm;68628;48.714;9.472;2023-07-29T14:05:20;57.76;53.71;61.76;;
79200;Laerm;68628;48.714;9.472;2023-07-29T14:07:46;58.27;55.91;62.19;;